createdAt,value
2022-09-17T00:00:04.025Z,80.30
2022-09-17T00:02:38.984Z,80.51
2022-09-17T00:05:10.844Z,80.90
2022-09-17T00:07:40.837Z,81.05
2022-09-17T00:10:11.883Z,81.15
2022-09-17T00:12:42.151Z,80.58
2022-09-17T00:15:15.734Z,80.82
2022-09-17T00:17:46.876Z,80.50
2022-09-17T00:20:17.264Z,80.19
2022-09-17T00:22:47.485Z,80.10
2022-09-17T00:25:17.639Z,79.93
2022-09-17T00:27:47.996Z,80.19
2022-09-17T00:30:21.043Z,80.01
2022-09-17T00:32:51.597Z,79.79
2022-09-17T00:35:21.759Z,80.04
2022-09-17T00:37:51.944Z,79.24
2022-09-17T00:40:22.443Z,79.67
2022-09-17T00:42:53.529Z,79.45
2022-09-17T00:45:27.345Z,78.95
2022-09-17T00:48:02.425Z,78.96
2022-09-17T00:50:38.120Z,78.61
2022-09-17T00:53:11.796Z,78.24
2022-09-17T00:55:45.808Z,77.87
2022-09-17T00:58:20.242Z,77.69
2022-09-17T01:00:52.914Z,77.94
2022-09-17T01:03:23.110Z,78.19
2022-09-17T01:06:02.471Z,78.14
2022-09-17T01:08:43.909Z,77.55
2022-09-17T01:11:29.487Z,77.70
2022-09-17T01:14:17.191Z,78.30
2022-09-17T01:16:59.730Z,78.33
2022-09-17T01:20:10.143Z,78.46
2022-09-17T01:22:58.224Z,78.39
2022-09-17T01:25:41.501Z,78.15
2022-09-17T01:28:35.725Z,77.99
2022-09-17T01:31:20.657Z,78.19
2022-09-17T01:34:03.261Z,77.85
2022-09-17T01:36:57.744Z,77.76
2022-09-17T01:39:40.121Z,78.30
2022-09-17T01:42:23.238Z,78.59
2022-09-17T01:45:03.408Z,78.05
2022-09-17T01:47:40.898Z,78.27
2022-09-17T01:50:17.386Z,79.26
2022-09-17T01:52:52.472Z,79.67
2022-09-17T01:55:27.280Z,80.25
2022-09-17T01:58:00.883Z,80.97
2022-09-17T02:00:31.333Z,81.37
2022-09-17T02:03:11.271Z,81.37
2022-09-17T02:05:46.066Z,81.55
2022-09-17T02:08:21.892Z,81.65
2022-09-17T02:10:59.247Z,81.25
2022-09-17T02:13:36.027Z,80.02
2022-09-17T02:16:12.691Z,80.49
2022-09-17T02:18:53.522Z,80.94
2022-09-17T02:21:33.310Z,79.83
2022-09-17T02:24:12.924Z,79.75
2022-09-17T02:26:48.890Z,79.45
2022-09-17T02:29:29.567Z,79.46
2022-09-17T02:32:00.094Z,78.57
2022-09-17T02:34:33.220Z,79.33
2022-09-17T02:37:04.786Z,79.88
2022-09-17T02:39:35.295Z,80.59
2022-09-17T02:42:18.646Z,80.51
2022-09-17T02:45:00.415Z,80.65
2022-09-17T02:47:59.683Z,81.65
2022-09-17T02:51:14.341Z,82.07
2022-09-17T02:53:53.921Z,83.06
2022-09-17T02:56:36.890Z,84.34
2022-09-17T02:59:19.011Z,86.34
2022-09-17T03:01:58.531Z,87.66
2022-09-17T03:04:31.454Z,89.37
2022-09-17T03:07:09.417Z,92.09
2022-09-17T03:09:39.695Z,93.30
2022-09-17T03:12:10.357Z,96.17
2022-09-17T03:14:40.960Z,98.87
2022-09-17T03:17:11.319Z,100.00
2022-09-17T03:19:41.474Z,100.00
2022-09-17T03:22:14.985Z,100.00
2022-09-17T03:24:45.230Z,100.00
2022-09-17T03:27:15.453Z,100.00
2022-09-17T03:29:45.523Z,100.00
2022-09-17T03:32:15.684Z,100.00
2022-09-17T03:34:47.069Z,100.00
2022-09-17T03:37:20.062Z,100.00
2022-09-17T03:39:50.089Z,100.00
2022-09-17T03:42:20.148Z,100.00
2022-09-17T03:44:50.132Z,100.00
2022-09-17T03:47:20.251Z,100.00
2022-09-17T03:49:50.267Z,100.00
2022-09-17T03:52:22.967Z,100.00
2022-09-17T03:54:52.959Z,100.00
2022-09-17T03:57:23.078Z,100.00
2022-09-17T03:59:53.291Z,100.00
2022-09-17T04:02:23.553Z,100.00
2022-09-17T04:04:54.153Z,100.00
2022-09-17T04:07:26.981Z,100.00
2022-09-17T04:09:56.982Z,100.00
2022-09-17T04:12:27.086Z,100.00
2022-09-17T04:14:57.244Z,100.00
2022-09-17T04:17:27.456Z,100.00
2022-09-17T04:19:57.705Z,100.00
2022-09-17T04:22:30.653Z,100.00
2022-09-17T04:25:00.650Z,100.00
2022-09-17T04:27:30.595Z,100.00
2022-09-17T04:30:01.722Z,100.00
2022-09-17T04:32:32.060Z,100.00
2022-09-17T04:35:02.304Z,100.00
2022-09-17T04:37:35.019Z,100.00
2022-09-17T04:40:08.071Z,100.00
2022-09-17T04:42:38.437Z,100.00
2022-09-17T04:45:10.115Z,100.00
2022-09-17T04:47:42.462Z,100.00
2022-09-17T04:50:13.059Z,100.00
2022-09-17T04:52:49.262Z,100.00
2022-09-17T04:55:20.005Z,100.00
2022-09-17T04:57:51.072Z,100.00
2022-09-17T05:00:21.805Z,100.00
2022-09-17T05:02:55.030Z,100.00
2022-09-17T05:05:26.367Z,100.00
2022-09-17T05:07:58.984Z,100.00
2022-09-17T05:10:29.430Z,100.00
2022-09-17T05:13:00.381Z,100.00
2022-09-17T05:15:30.628Z,100.00
2022-09-17T05:18:00.863Z,100.00
2022-09-17T05:20:31.130Z,100.00
2022-09-17T05:23:03.719Z,100.00
2022-09-17T05:25:33.793Z,100.00
2022-09-17T05:28:04.428Z,100.00
2022-09-17T05:30:34.922Z,100.00
2022-09-17T05:33:07.455Z,100.00
2022-09-17T05:35:38.694Z,100.00
2022-09-17T05:38:11.359Z,100.00
2022-09-17T05:40:41.528Z,100.00
2022-09-17T05:43:12.731Z,100.00
2022-09-17T05:45:42.863Z,100.00
2022-09-17T05:48:16.473Z,100.00
2022-09-17T05:50:47.215Z,100.00
2022-09-17T05:53:19.885Z,100.00
2022-09-17T05:55:49.925Z,100.00
2022-09-17T05:58:22.309Z,100.00
2022-09-17T06:00:52.416Z,100.00
2022-09-17T06:03:23.775Z,100.00
2022-09-17T06:05:59.345Z,100.00
2022-09-17T06:08:32.420Z,100.00
2022-09-17T06:11:07.635Z,100.00
2022-09-17T06:13:38.875Z,100.00
2022-09-17T06:16:09.898Z,100.00
2022-09-17T06:18:40.135Z,100.00
2022-09-17T06:21:10.233Z,100.00
2022-09-17T06:23:43.597Z,100.00
2022-09-17T06:26:14.224Z,100.00
2022-09-17T06:28:44.795Z,100.00
2022-09-17T06:31:16.718Z,100.00
2022-09-17T06:33:48.310Z,100.00
2022-09-17T06:36:18.370Z,100.00
2022-09-17T06:38:51.057Z,100.00
2022-09-17T06:41:21.145Z,100.00
2022-09-17T06:43:51.098Z,100.00
2022-09-17T06:46:21.282Z,100.00
2022-09-17T06:48:51.667Z,100.00
2022-09-17T06:51:22.742Z,100.00
2022-09-17T06:53:55.425Z,100.00
2022-09-17T06:56:25.449Z,100.00
2022-09-17T06:58:55.433Z,100.00
2022-09-17T07:01:25.537Z,100.00
2022-09-17T07:03:55.530Z,100.00
2022-09-17T07:06:25.488Z,100.00
2022-09-17T07:08:58.177Z,100.00
2022-09-17T07:11:28.544Z,100.00
2022-09-17T07:13:59.254Z,100.00
2022-09-17T07:16:30.414Z,100.00
2022-09-17T07:19:00.684Z,100.00
2022-09-17T07:21:30.830Z,100.00
2022-09-17T07:24:03.842Z,100.00
2022-09-17T07:26:33.954Z,100.00
2022-09-17T07:29:04.032Z,100.00
2022-09-17T07:31:34.247Z,100.00
2022-09-17T07:34:04.386Z,100.00
2022-09-17T07:36:34.476Z,100.00
2022-09-17T07:39:07.292Z,100.00
2022-09-17T07:41:37.482Z,100.00
2022-09-17T07:44:08.017Z,100.00
2022-09-17T07:46:38.589Z,100.00
2022-09-17T07:49:08.671Z,100.00
2022-09-17T07:51:40.521Z,100.00
2022-09-17T07:54:13.493Z,100.00
2022-09-17T07:56:45.073Z,100.00
2022-09-17T07:59:15.945Z,100.00
2022-09-17T08:01:46.117Z,100.00
2022-09-17T08:04:16.366Z,100.00
2022-09-17T08:06:48.479Z,100.00
2022-09-17T08:09:22.732Z,100.00
2022-09-17T08:11:56.154Z,100.00
2022-09-17T08:14:29.629Z,100.00
2022-09-17T08:17:00.459Z,99.56
2022-09-17T08:19:33.353Z,95.44
2022-09-17T08:22:03.521Z,95.53
2022-09-17T08:24:36.398Z,94.79
2022-09-17T08:27:07.186Z,94.03
2022-09-17T08:29:37.414Z,95.91
2022-09-17T08:32:07.731Z,91.41
2022-09-17T08:34:38.009Z,85.92
2022-09-17T08:37:08.437Z,77.12
2022-09-17T08:39:41.249Z,78.28
2022-09-17T08:42:20.506Z,80.49
2022-09-17T08:44:53.686Z,81.67
2022-09-17T08:47:33.604Z,81.80
2022-09-17T08:50:06.443Z,80.34
2022-09-17T08:53:02.610Z,76.84
2022-09-17T08:55:43.720Z,78.33
2022-09-17T08:58:43.072Z,76.66
2022-09-17T09:01:35.527Z,77.33
2022-09-17T09:04:50.246Z,77.80
2022-09-17T09:07:26.161Z,79.83
2022-09-17T09:10:09.963Z,80.29
2022-09-17T09:12:43.556Z,79.54
2022-09-17T09:15:30.528Z,80.20
2022-09-17T09:18:07.806Z,78.49
2022-09-17T09:20:51.861Z,75.98
2022-09-17T09:23:29.879Z,76.24
2022-09-17T09:26:20.163Z,74.25
2022-09-17T09:29:08.843Z,74.30
2022-09-17T09:31:59.354Z,73.64
2022-09-17T09:34:30.805Z,74.04
2022-09-17T09:37:14.854Z,71.60
2022-09-17T09:39:48.586Z,69.72
2022-09-17T09:42:29.990Z,69.24
2022-09-17T09:45:10.827Z,67.52
2022-09-17T09:48:00.354Z,63.33
2022-09-17T09:51:05.606Z,60.57
2022-09-17T09:53:53.933Z,61.38
2022-09-17T09:56:39.767Z,63.17
2022-09-17T09:59:11.463Z,65.16
2022-09-17T10:01:46.464Z,66.92
2022-09-17T10:04:23.981Z,67.15
2022-09-17T10:06:56.969Z,67.79
2022-09-17T10:09:30.132Z,67.95
2022-09-17T10:12:18.835Z,67.73
2022-09-17T10:14:51.734Z,69.07
2022-09-17T10:17:28.179Z,64.49
2022-09-17T10:20:22.894Z,66.51
2022-09-17T10:22:53.657Z,70.22
2022-09-17T10:25:33.845Z,73.34
2022-09-17T10:28:08.716Z,77.77
2022-09-17T10:30:38.949Z,79.28
2022-09-17T10:33:27.833Z,80.65
2022-09-17T10:36:01.835Z,82.05
2022-09-17T10:38:35.855Z,76.75
2022-09-17T10:41:19.155Z,79.37
2022-09-17T10:43:49.731Z,78.67
2022-09-17T10:46:27.589Z,75.72
2022-09-17T10:49:14.310Z,68.41
2022-09-17T10:51:44.805Z,62.93
2022-09-17T10:54:44.020Z,60.16
2022-09-17T10:57:27.255Z,60.75
2022-09-17T11:00:11.718Z,59.86
2022-09-17T11:03:22.266Z,58.74
2022-09-17T11:06:18.214Z,57.42
2022-09-17T11:09:01.948Z,56.92
2022-09-17T11:11:47.012Z,56.40
2022-09-17T11:14:39.652Z,54.61
2022-09-17T11:17:28.288Z,56.02
2022-09-17T11:20:08.273Z,56.03
2022-09-17T11:22:57.824Z,57.22
2022-09-17T11:25:45.916Z,59.14
2022-09-17T11:28:37.094Z,60.91
2022-09-17T11:31:24.923Z,60.68
2022-09-17T11:34:17.751Z,63.46
2022-09-17T11:36:58.878Z,62.24
2022-09-17T11:39:45.082Z,62.59
2022-09-17T11:42:21.300Z,61.19
2022-09-17T11:44:56.428Z,61.36
2022-09-17T11:47:32.978Z,62.01
2022-09-17T11:50:07.211Z,61.08
2022-09-17T11:52:43.820Z,60.85
2022-09-17T11:55:26.416Z,58.96
2022-09-17T11:58:04.153Z,58.70
2022-09-17T12:00:47.525Z,58.99
2022-09-17T12:03:26.278Z,56.30
2022-09-17T12:06:00.394Z,52.12
2022-09-17T12:08:40.157Z,51.13
2022-09-17T12:11:20.226Z,49.08
2022-09-17T12:13:53.976Z,49.40
2022-09-17T12:16:29.044Z,49.40
2022-09-17T12:19:05.642Z,48.57
2022-09-17T12:21:44.429Z,49.64
2022-09-17T12:24:24.900Z,52.36
2022-09-17T12:27:09.158Z,55.18
2022-09-17T12:30:13.432Z,59.24
2022-09-17T12:33:03.287Z,67.72
2022-09-17T12:36:05.932Z,70.84
2022-09-17T12:39:03.225Z,73.96
2022-09-17T12:41:45.923Z,74.35
2022-09-17T12:45:07.564Z,61.98
2022-09-17T12:48:08.894Z,57.37
2022-09-17T12:50:57.887Z,54.72
2022-09-17T12:53:33.757Z,55.38
2022-09-17T12:56:25.291Z,57.00
2022-09-17T12:59:10.098Z,56.43
2022-09-17T13:01:52.276Z,56.69
2022-09-17T13:05:13.100Z,55.83
2022-09-17T13:08:21.787Z,56.19
2022-09-17T13:12:04.483Z,52.15
2022-09-17T13:15:01.738Z,53.55
2022-09-17T13:17:46.668Z,53.30
2022-09-17T13:20:27.988Z,53.14
2022-09-17T13:23:01.169Z,53.21
2022-09-17T13:25:31.353Z,56.36
2022-09-17T13:28:11.425Z,57.48
2022-09-17T13:31:01.267Z,51.74
2022-09-17T13:34:15.641Z,47.51
2022-09-17T13:36:50.775Z,42.61
2022-09-17T13:39:43.147Z,43.50
2022-09-17T13:42:29.027Z,42.67
2022-09-17T13:45:13.170Z,39.75
2022-09-17T13:47:54.722Z,38.42
2022-09-17T13:50:38.093Z,36.60
2022-09-17T13:53:21.469Z,36.33
2022-09-17T13:55:54.932Z,35.82
2022-09-17T13:58:29.400Z,34.86
2022-09-17T14:01:04.995Z,34.77
2022-09-17T14:03:54.273Z,34.80
2022-09-17T14:07:06.104Z,33.63
2022-09-17T14:09:50.300Z,34.76
2022-09-17T14:13:31.195Z,38.11
2022-09-17T14:16:07.046Z,40.76
2022-09-17T14:18:48.565Z,45.69
2022-09-17T14:21:30.177Z,47.98
2022-09-17T14:24:06.338Z,49.32
2022-09-17T14:27:01.637Z,47.59
2022-09-17T14:30:14.551Z,41.18
2022-09-17T14:32:53.531Z,39.54
2022-09-17T14:35:40.234Z,40.15
2022-09-17T14:38:20.007Z,41.36
2022-09-17T14:40:56.564Z,42.25
2022-09-17T14:43:46.976Z,45.09
2022-09-17T14:46:23.528Z,46.17
2022-09-17T14:48:53.976Z,45.81
2022-09-17T14:51:33.230Z,41.04
2022-09-17T14:54:24.995Z,35.47
2022-09-17T14:57:03.937Z,34.19
2022-09-17T14:59:49.152Z,32.85
2022-09-17T15:02:41.764Z,31.45
2022-09-17T15:05:30.255Z,29.88
2022-09-17T15:08:21.206Z,29.97
2022-09-17T15:10:59.247Z,29.89
2022-09-17T15:13:33.811Z,29.60
2022-09-17T15:16:11.340Z,30.69
2022-09-17T15:18:45.253Z,30.62
2022-09-17T15:21:28.410Z,30.53
2022-09-17T15:24:07.499Z,30.48
2022-09-17T15:26:43.223Z,29.56
2022-09-17T15:29:15.335Z,30.07
2022-09-17T15:31:45.491Z,31.62
2022-09-17T15:34:15.805Z,32.95
2022-09-17T15:37:06.157Z,33.44
2022-09-17T15:39:46.829Z,34.03
2022-09-17T15:42:29.153Z,34.50
2022-09-17T15:45:12.271Z,36.09
2022-09-17T15:47:57.940Z,39.17
2022-09-17T15:50:31.054Z,42.04
2022-09-17T15:53:15.755Z,45.72
2022-09-17T15:56:02.152Z,48.49
2022-09-17T15:58:35.887Z,48.01
2022-09-17T16:01:56.448Z,44.41
2022-09-17T16:04:33.143Z,44.47
2022-09-17T16:07:23.513Z,43.35
2022-09-17T16:09:55.320Z,43.06
2022-09-17T16:12:29.964Z,43.71
2022-09-17T16:15:02.313Z,44.31
2022-09-17T16:17:41.333Z,45.86
2022-09-17T16:20:18.626Z,46.51
2022-09-17T16:22:49.832Z,47.20
2022-09-17T16:25:21.355Z,47.96
2022-09-17T16:28:00.502Z,48.89
2022-09-17T16:30:30.917Z,49.67
2022-09-17T16:33:03.763Z,50.49
2022-09-17T16:35:33.840Z,51.90
2022-09-17T16:38:03.904Z,52.72
2022-09-17T16:40:34.018Z,53.50
2022-09-17T16:43:07.201Z,53.42
2022-09-17T16:45:38.070Z,53.42
2022-09-17T16:48:11.902Z,53.51
2022-09-17T16:50:44.873Z,53.46
2022-09-17T16:53:15.022Z,53.98
2022-09-17T16:55:45.046Z,54.25
2022-09-17T16:58:17.792Z,55.09
2022-09-17T17:00:48.572Z,56.33
2022-09-17T17:03:18.991Z,57.78
2022-09-17T17:05:49.106Z,59.39
2022-09-17T17:08:19.242Z,60.14
2022-09-17T17:10:52.770Z,60.78
2022-09-17T17:13:25.683Z,60.99
2022-09-17T17:15:55.857Z,61.63
2022-09-17T17:18:27.221Z,62.20
2022-09-17T17:20:57.345Z,62.76
2022-09-17T17:23:29.177Z,63.55
2022-09-17T17:26:01.423Z,63.14
2022-09-17T17:28:35.207Z,63.67
2022-09-17T17:31:05.615Z,63.68
2022-09-17T17:33:35.804Z,64.49
2022-09-17T17:36:08.736Z,64.97
2022-09-17T17:38:39.112Z,65.28
2022-09-17T17:41:12.131Z,66.00
2022-09-17T17:43:45.194Z,66.65
2022-09-17T17:46:15.891Z,67.20
2022-09-17T17:48:46.556Z,67.92
2022-09-17T17:51:18.718Z,68.44
2022-09-17T17:53:49.572Z,68.87
2022-09-17T17:56:23.583Z,68.75
2022-09-17T17:59:01.537Z,69.40
2022-09-17T18:01:35.134Z,69.81
2022-09-17T18:04:08.541Z,70.15
2022-09-17T18:06:39.347Z,70.88
2022-09-17T18:09:10.282Z,71.82
2022-09-17T18:11:40.621Z,72.20
2022-09-17T18:14:16.414Z,72.70
2022-09-17T18:16:46.561Z,73.45
2022-09-17T18:19:17.052Z,74.10
2022-09-17T18:21:47.139Z,74.46
2022-09-17T18:24:17.266Z,74.94
2022-09-17T18:26:49.782Z,75.43
2022-09-17T18:29:22.552Z,75.79
2022-09-17T18:31:52.778Z,75.90
2022-09-17T18:34:22.946Z,76.28
2022-09-17T18:36:53.004Z,76.73
2022-09-17T18:42:19.859Z,78.11
2022-09-17T18:44:52.698Z,78.98
2022-09-17T18:47:22.891Z,79.92
2022-09-17T18:49:53.260Z,80.63
2022-09-17T18:52:23.819Z,80.91
2022-09-17T18:54:53.916Z,81.19
2022-09-17T18:57:24.073Z,80.75
2022-09-17T18:59:58.458Z,80.71
2022-09-17T19:02:30.159Z,81.05
2022-09-17T19:05:01.397Z,81.27
2022-09-17T19:07:31.436Z,80.60
2022-09-17T19:10:01.535Z,79.40
2022-09-17T19:12:33.342Z,78.41
2022-09-17T19:15:06.107Z,76.90
2022-09-17T19:17:36.345Z,75.50
2022-09-17T19:20:07.656Z,74.26
2022-09-17T19:22:37.809Z,75.24
2022-09-17T19:25:09.743Z,75.66
2022-09-17T19:27:41.524Z,74.40
2022-09-17T19:30:16.293Z,76.40
2022-09-17T19:32:49.623Z,79.05
2022-09-17T19:35:20.793Z,80.05
2022-09-17T19:37:50.960Z,82.00
2022-09-17T19:40:21.055Z,82.99
2022-09-17T19:42:56.176Z,84.67
2022-09-17T19:45:31.068Z,85.40
2022-09-17T19:48:01.785Z,85.75
2022-09-17T19:50:32.698Z,85.83
2022-09-17T19:53:02.905Z,87.22
2022-09-17T19:55:33.117Z,89.41
2022-09-17T19:58:04.679Z,93.47
2022-09-17T20:00:38.854Z,95.86
2022-09-17T20:03:09.232Z,96.14
2022-09-17T20:05:39.417Z,97.55
2022-09-17T20:08:09.587Z,98.26
2022-09-17T20:10:39.930Z,98.37
2022-09-17T20:13:10.136Z,98.46
2022-09-17T20:15:42.867Z,100.00
2022-09-17T20:18:13.014Z,100.00
2022-09-17T20:20:44.120Z,100.00
2022-09-17T20:23:14.020Z,100.00
2022-09-17T20:25:44.878Z,100.00
2022-09-17T20:28:15.171Z,100.00
2022-09-17T20:30:48.106Z,100.00
2022-09-17T20:33:24.197Z,100.00
2022-09-17T20:36:01.455Z,100.00
2022-09-17T20:41:23.747Z,100.00
2022-09-17T20:43:55.394Z,100.00
2022-09-17T20:46:29.924Z,100.00
2022-09-17T20:49:00.524Z,100.00
2022-09-17T20:51:34.040Z,100.00
2022-09-17T20:54:04.460Z,100.00
2022-09-17T20:56:36.775Z,100.00
2022-09-17T20:59:14.500Z,100.00
2022-09-17T21:01:49.938Z,100.00
2022-09-17T21:04:24.264Z,100.00
2022-09-17T21:06:56.444Z,100.00
2022-09-17T21:09:26.592Z,100.00
2022-09-17T21:11:56.686Z,100.00
2022-09-17T21:14:27.417Z,100.00
2022-09-17T21:17:09.458Z,100.00
2022-09-17T21:19:39.480Z,100.00
2022-09-17T21:22:09.673Z,100.00
2022-09-17T21:24:39.812Z,100.00
2022-09-17T21:27:09.896Z,100.00
2022-09-17T21:29:39.889Z,100.00
2022-09-17T21:32:12.637Z,100.00
2022-09-17T21:34:42.902Z,100.00
2022-09-17T21:37:13.537Z,100.00
2022-09-17T21:39:43.636Z,100.00
2022-09-17T21:42:13.835Z,100.00
2022-09-17T21:44:46.175Z,100.00
2022-09-17T21:47:18.874Z,100.00
2022-09-17T21:49:49.229Z,100.00
2022-09-17T21:52:20.651Z,100.00
2022-09-17T21:54:50.741Z,100.00
2022-09-17T21:57:20.835Z,100.00
2022-09-17T21:59:51.035Z,100.00
2022-09-17T22:02:27.321Z,100.00
2022-09-17T22:04:57.461Z,100.00
2022-09-17T22:07:27.735Z,100.00
2022-09-17T22:09:57.830Z,100.00
2022-09-17T22:12:28.014Z,100.00
2022-09-17T22:15:00.897Z,100.00
2022-09-17T22:17:39.646Z,100.00
2022-09-17T22:20:13.387Z,100.00
2022-09-17T22:22:45.907Z,100.00
2022-09-17T22:25:18.470Z,100.00
2022-09-17T22:28:16.904Z,100.00
2022-09-17T22:30:44.150Z,100.00
2022-09-17T22:33:16.787Z,100.00
2022-09-17T22:35:46.949Z,100.00
2022-09-17T22:38:24.792Z,100.00
2022-09-17T22:40:56.137Z,100.00
2022-09-17T22:43:26.466Z,100.00
2022-09-17T22:45:56.808Z,100.00
2022-09-17T22:48:30.676Z,100.00
2022-09-17T22:51:03.141Z,100.00
2022-09-17T22:53:33.291Z,100.00
2022-09-17T22:56:03.892Z,100.00
2022-09-17T22:58:34.880Z,100.00
2022-09-17T23:01:08.997Z,100.00
2022-09-17T23:03:45.560Z,100.00
2022-09-17T23:06:22.380Z,100.00
2022-09-17T23:08:53.317Z,100.00
2022-09-17T23:11:30.602Z,100.00
2022-09-17T23:14:04.416Z,100.00
2022-09-17T23:16:38.663Z,100.00
2022-09-17T23:19:11.921Z,100.00
2022-09-17T23:21:44.429Z,100.00
2022-09-17T23:24:29.292Z,100.00
2022-09-17T23:26:59.404Z,100.00
2022-09-17T23:29:29.925Z,100.00
2022-09-17T23:32:00.146Z,100.00
2022-09-17T23:34:35.149Z,100.00
2022-09-17T23:37:08.065Z,100.00
2022-09-17T23:39:41.580Z,100.00
2022-09-17T23:42:14.040Z,100.00
2022-09-17T23:44:48.306Z,100.00
2022-09-17T23:47:21.241Z,100.00
2022-09-17T23:49:58.056Z,100.00
2022-09-17T23:52:36.812Z,100.00
2022-09-17T23:55:13.569Z,100.00
2022-09-17T23:57:46.915Z,100.00
